Time;durP1;ratioP1;P1;durP2;ratioP2;P2;SDS_P1;SDS_P2;PMS_P1;PMS_P2;Temp;Humidity;BMP_temperature;BMP_pressure;BME280_temperature;BME280_humidity;BME280_pressure;Samples;Min_cycle;Max_cycle;Signal;HPM_P1;HPM_P2
2023/04/22 00:00:11;;;;;;;11.70;8.40;;;;;;;;;;5050233;28;20036;-66
2023/04/22 00:02:37;;;;;;;13.10;8.33;;;;;;;;;;5063606;28;20059;-67
2023/04/22 00:05:03;;;;;;;15.10;8.13;;;;;;;;;;5053199;28;20039;-66
2023/04/22 00:07:28;;;;;;;13.90;8.10;;;;;;;;;;5061166;28;20385;-66
2023/04/22 00:09:54;;;;;;;11.90;7.83;;;;;;;;;;5058226;28;20051;-67
2023/04/22 00:12:19;;;;;;;13.57;8.70;;;;;;;;;;5057043;28;20094;-67
2023/04/22 00:14:44;;;;;;;13.83;8.20;;;;;;;;;;5053854;28;20392;-66
2023/04/22 00:17:10;;;;;;;12.60;8.50;;;;;;;;;;5058906;28;20024;-67
2023/04/22 00:19:36;;;;;;;13.10;8.27;;;;;;;;;;5058617;28;20033;-67
2023/04/22 00:22:01;;;;;;;12.80;8.23;;;;;;;;;;5067907;28;20029;-67
2023/04/22 00:24:27;;;;;;;13.87;8.40;;;;;;;;;;5054353;28;20024;-67
2023/04/22 00:26:52;;;;;;;16.40;8.77;;;;;;;;;;5057569;28;20449;-67
2023/04/22 00:29:17;;;;;;;15.73;9.20;;;;;;;;;;5061493;28;20482;-67
2023/04/22 00:31:43;;;;;;;16.27;9.37;;;;;;;;;;5052796;28;20147;-67
2023/04/22 00:34:08;;;;;;;13.10;8.90;;;;;;;;;;5061062;28;20106;-67
2023/04/22 00:36:33;;;;;;;13.73;8.90;;;;;;;;;;5060097;28;20033;-67
2023/04/22 00:38:58;;;;;;;12.77;8.77;;;;;;;;;;5062850;28;20167;-67
2023/04/22 00:41:24;;;;;;;12.73;8.53;;;;;;;;;;5054437;28;20025;-67
2023/04/22 00:43:51;;;;;;;13.10;8.63;;;;;;;;;;5064775;28;20037;-67
2023/04/22 00:46:16;;;;;;;14.17;8.30;;;;;;;;;;5063904;28;20132;-67
2023/04/22 00:48:41;;;;;;;13.17;8.37;;;;;;;;;;5052997;28;20044;-67
2023/04/22 00:51:07;;;;;;;14.20;8.50;;;;;;;;;;5061150;28;20388;-67
2023/04/22 00:53:32;;;;;;;16.50;8.90;;;;;;;;;;5058314;28;20029;-62
2023/04/22 00:55:57;;;;;;;14.97;8.67;;;;;;;;;;5052659;28;20025;-62
2023/04/22 00:58:25;;;;;;;12.43;8.90;;;;;;;;;;5071709;28;20047;-63
2023/04/22 01:03:55;;;;;;;10.40;7.17;;;;;;;;;;5062342;22;20111;-57
2023/04/22 01:06:21;;;;;;;11.97;8.13;;;;;;;;;;5044122;28;20111;-57
2023/04/22 01:08:46;;;;;;;12.93;7.90;;;;;;;;;;5036580;28;20036;-57
2023/04/22 01:11:12;;;;;;;12.37;8.20;;;;;;;;;;5035023;28;20425;-57
2023/04/22 01:13:37;;;;;;;12.93;7.53;;;;;;;;;;5031560;28;20485;-57
2023/04/22 01:16:04;;;;;;;11.80;7.60;;;;;;;;;;5040049;28;20543;-57
2023/04/22 01:18:31;;;;;;;13.93;8.07;;;;;;;;;;5046473;28;20028;-57
2023/04/22 01:20:56;;;;;;;13.77;7.70;;;;;;;;;;5026011;28;20405;-57
2023/04/22 01:23:21;;;;;;;13.73;8.27;;;;;;;;;;5033858;28;20022;-57
2023/04/22 01:25:47;;;;;;;13.00;8.43;;;;;;;;;;5033858;28;20025;-57
2023/04/22 01:28:12;;;;;;;12.60;8.13;;;;;;;;;;5038407;28;20025;-57
2023/04/22 01:30:38;;;;;;;14.67;8.60;;;;;;;;;;5043157;28;20088;-57
2023/04/22 01:33:03;;;;;;;13.63;8.60;;;;;;;;;;5037239;28;20025;-57
2023/04/22 01:35:35;;;;;;;15.10;8.57;;;;;;;;;;5039043;28;20020;-58
2023/04/22 01:38:00;;;;;;;;;;;;;;;;;;5036717;28;20366;-57
2023/04/22 01:40:26;;;;;;;13.00;8.90;;;;;;;;;;5037672;28;19920;-57
2023/04/22 01:42:51;;;;;;;14.37;8.53;;;;;;;;;;5042923;28;20483;-57
2023/04/22 01:45:16;;;;;;;12.43;7.53;;;;;;;;;;5035345;28;20111;-56
2023/04/22 01:47:42;;;;;;;13.27;8.27;;;;;;;;;;5046581;28;20020;-56
2023/04/22 01:50:08;;;;;;;13.27;8.60;;;;;;;;;;5043124;28;20115;-56
2023/04/22 01:52:34;;;;;;;14.90;8.67;;;;;;;;;;5035182;28;20072;-56
2023/04/22 01:55:01;;;;;;;12.30;7.93;;;;;;;;;;5041317;28;20358;-56
2023/04/22 01:57:26;;;;;;;13.50;7.57;;;;;;;;;;5032982;28;20057;-57
2023/04/22 01:59:51;;;;;;;14.57;8.07;;;;;;;;;;5044166;28;20504;-56
2023/04/22 02:02:17;;;;;;;15.13;8.70;;;;;;;;;;5039194;28;20052;-57
2023/04/22 02:04:42;;;;;;;12.80;8.10;;;;;;;;;;5048064;28;20485;-56
2023/04/22 02:07:07;;;;;;;15.57;8.43;;;;;;;;;;5057513;28;20499;-57
2023/04/22 02:09:33;;;;;;;15.37;9.20;;;;;;;;;;5054659;28;20029;-56
2023/04/22 02:11:58;;;;;;;13.60;8.67;;;;;;;;;;5056813;28;20036;-56
2023/04/22 02:14:23;;;;;;;14.10;8.50;;;;;;;;;;5060257;28;20092;-56
2023/04/22 02:16:49;;;;;;;13.20;8.63;;;;;;;;;;5055744;28;20060;-56
2023/04/22 02:19:14;;;;;;;17.23;9.97;;;;;;;;;;5055241;28;20387;-57
2023/04/22 02:21:39;;;;;;;16.27;9.60;;;;;;;;;;5057639;28;20048;-56
2023/04/22 02:24:05;;;;;;;13.90;8.93;;;;;;;;;;5057106;28;20036;-57
2023/04/22 02:26:30;;;;;;;15.17;8.47;;;;;;;;;;5056158;28;20028;-58
2023/04/22 02:28:55;;;;;;;13.67;7.90;;;;;;;;;;5054914;28;20025;-57
2023/04/22 02:31:21;;;;;;;15.77;8.60;;;;;;;;;;5050513;28;20025;-56
2023/04/22 02:33:46;;;;;;;12.43;8.40;;;;;;;;;;5063119;28;20013;-57
2023/04/22 02:36:11;;;;;;;17.13;8.70;;;;;;;;;;5052626;28;20373;-57
2023/04/22 02:38:37;;;;;;;13.13;7.57;;;;;;;;;;5053030;28;20032;-56
2023/04/22 02:41:02;;;;;;;17.30;9.83;;;;;;;;;;5058426;28;20056;-57
2023/04/22 02:43:28;;;;;;;15.73;9.33;;;;;;;;;;5057403;28;20021;-57
2023/04/22 02:45:53;;;;;;;16.43;9.87;;;;;;;;;;5060142;28;20435;-58
2023/04/22 02:48:18;;;;;;;13.47;9.20;;;;;;;;;;5065345;28;20016;-58
2023/04/22 02:50:43;;;;;;;14.37;9.30;;;;;;;;;;5064593;28;20029;-60
2023/04/22 02:53:09;;;;;;;15.77;9.00;;;;;;;;;;5061575;28;20425;-57
2023/04/22 02:55:34;;;;;;;13.10;8.53;;;;;;;;;;5061246;28;20025;-57
2023/04/22 02:57:59;;;;;;;16.50;9.80;;;;;;;;;;5051841;28;20044;-58
2023/04/22 03:00:25;;;;;;;16.97;9.60;;;;;;;;;;5050450;28;20043;-58
2023/04/22 03:02:50;;;;;;;16.27;9.83;;;;;;;;;;5049179;28;20476;-58
2023/04/22 03:05:16;;;;;;;13.90;10.20;;;;;;;;;;5053944;28;20535;-58
2023/04/22 03:07:41;;;;;;;15.27;10.60;;;;;;;;;;5060794;28;20112;-58
2023/04/22 03:10:07;;;;;;;16.47;9.70;;;;;;;;;;5054301;28;20009;-58
2023/04/22 03:12:32;;;;;;;19.43;10.20;;;;;;;;;;5049941;28;20503;-57
2023/04/22 03:14:57;;;;;;;16.17;10.33;;;;;;;;;;5052863;28;20350;-58
2023/04/22 03:17:24;;;;;;;16.83;10.70;;;;;;;;;;5051907;28;20029;-58
2023/04/22 03:19:50;;;;;;;18.20;10.07;;;;;;;;;;5051205;28;20469;-58
2023/04/22 03:22:15;;;;;;;16.40;9.67;;;;;;;;;;5052639;28;20021;-58
2023/04/22 03:24:40;;;;;;;17.27;11.40;;;;;;;;;;5062678;28;20035;-57
2023/04/22 03:27:05;;;;;;;15.33;10.00;;;;;;;;;;5045098;28;20384;-58
2023/04/22 03:29:31;;;;;;;14.93;9.83;;;;;;;;;;5055506;28;20019;-58
2023/04/22 03:31:56;;;;;;;15.20;10.03;;;;;;;;;;5052929;28;20021;-58
2023/04/22 03:34:22;;;;;;;14.80;10.17;;;;;;;;;;5051936;28;20416;-58
2023/04/22 03:36:47;;;;;;;15.50;10.03;;;;;;;;;;5052558;28;20025;-57
2023/04/22 03:39:12;;;;;;;15.67;9.50;;;;;;;;;;5057168;28;20455;-58
2023/04/22 03:41:37;;;;;;;15.20;9.73;;;;;;;;;;5059715;28;20033;-58
2023/04/22 03:44:03;;;;;;;17.17;9.70;;;;;;;;;;5051025;28;20093;-58
2023/04/22 03:46:28;;;;;;;16.17;9.80;;;;;;;;;;5047888;28;20473;-58
2023/04/22 03:48:53;;;;;;;15.03;10.23;;;;;;;;;;5051311;28;20092;-57
2023/04/22 03:51:19;;;;;;;16.40;9.50;;;;;;;;;;5052096;28;20086;-57
2023/04/22 03:53:44;;;;;;;14.20;9.03;;;;;;;;;;5053796;28;20036;-57
2023/04/22 03:56:09;;;;;;;16.33;9.70;;;;;;;;;;5067362;28;20380;-58
2023/04/22 03:58:35;;;;;;;17.10;9.80;;;;;;;;;;5049626;28;20033;-57
2023/04/22 04:01:00;;;;;;;16.13;10.00;;;;;;;;;;5053000;28;20029;-57
2023/04/22 04:03:25;;;;;;;16.67;10.73;;;;;;;;;;5055037;28;20031;-57
2023/04/22 04:05:51;;;;;;;18.50;11.10;;;;;;;;;;5051611;28;20035;-58
2023/04/22 04:08:16;;;;;;;18.63;10.33;;;;;;;;;;5059815;28;20074;-57
2023/04/22 04:10:41;;;;;;;16.00;11.63;;;;;;;;;;5058215;28;20067;-58
2023/04/22 04:13:07;;;;;;;18.73;10.70;;;;;;;;;;5060106;28;20066;-57
2023/04/22 04:15:34;;;;;;;15.17;10.80;;;;;;;;;;5055935;28;20088;-58
2023/04/22 04:18:00;;;;;;;15.47;10.13;;;;;;;;;;5064443;28;20025;-57
2023/04/22 04:20:25;;;;;;;18.17;10.20;;;;;;;;;;5057922;28;20115;-58
2023/04/22 04:22:51;;;;;;;17.47;10.70;;;;;;;;;;5056289;28;20029;-58
2023/04/22 04:25:17;;;;;;;16.17;10.53;;;;;;;;;;5067149;28;20056;-58
2023/04/22 04:27:42;;;;;;;16.20;10.20;;;;;;;;;;5062957;28;20406;-58
2023/04/22 04:30:09;;;;;;;16.57;11.20;;;;;;;;;;5066107;28;20051;-58
2023/04/22 04:32:34;;;;;;;18.33;11.00;;;;;;;;;;5064133;28;20017;-58
2023/04/22 04:35:00;;;;;;;16.20;10.97;;;;;;;;;;5061619;28;20046;-58
2023/04/22 04:37:26;;;;;;;14.67;10.17;;;;;;;;;;5051447;28;20476;-58
2023/04/22 04:39:52;;;;;;;17.47;10.60;;;;;;;;;;5052156;28;20036;-57
2023/04/22 04:42:18;;;;;;;14.83;10.80;;;;;;;;;;5055252;28;20016;-58
2023/04/22 04:44:44;;;;;;;17.60;10.07;;;;;;;;;;5067735;28;20158;-57
2023/04/22 04:47:09;;;;;;;16.57;10.50;;;;;;;;;;5058114;28;20100;-57
2023/04/22 04:49:38;;;;;;;16.87;10.87;;;;;;;;;;5054626;28;20372;-58
2023/04/22 04:52:04;;;;;;;17.73;10.80;;;;;;;;;;5057294;28;20114;-57
2023/04/22 04:54:29;;;;;;;19.43;10.63;;;;;;;;;;5054395;28;20472;-57
2023/04/22 04:56:56;;;;;;;20.60;11.00;;;;;;;;;;5052731;28;20380;-58
2023/04/22 04:59:21;;;;;;;18.77;10.80;;;;;;;;;;5059788;28;20024;-58
2023/04/22 05:01:46;;;;;;;15.87;10.53;;;;;;;;;;5062095;28;20025;-58
2023/04/22 05:04:12;;;;;;;16.77;10.80;;;;;;;;;;5055357;28;20040;-58
2023/04/22 05:06:37;;;;;;;14.50;10.10;;;;;;;;;;5055450;28;20105;-57
2023/04/22 05:09:02;;;;;;;15.43;9.53;;;;;;;;;;5056376;28;20052;-58
2023/04/22 05:11:27;;;;;;;14.70;9.73;;;;;;;;;;5060720;28;20023;-58
2023/04/22 05:13:53;;;;;;;16.43;8.90;;;;;;;;;;5051993;28;20354;-58
2023/04/22 05:16:18;;;;;;;14.83;9.70;;;;;;;;;;5055202;28;20437;-58
2023/04/22 05:18:43;;;;;;;18.23;9.47;;;;;;;;;;5054462;28;20032;-58
2023/04/22 05:21:09;;;;;;;18.13;10.87;;;;;;;;;;5053800;28;20032;-58
2023/04/22 05:23:34;;;;;;;19.97;11.60;;;;;;;;;;5054173;28;20025;-57
2023/04/22 05:25:59;;;;;;;17.77;11.50;;;;;;;;;;5053938;28;20082;-57
2023/04/22 05:28:25;;;;;;;19.73;11.27;;;;;;;;;;5053412;28;20082;-58
2023/04/22 05:30:50;;;;;;;20.27;11.77;;;;;;;;;;5060209;28;20036;-58
2023/04/22 05:33:15;;;;;;;23.00;11.30;;;;;;;;;;5052787;28;20036;-58
2023/04/22 05:35:41;;;;;;;15.50;9.80;;;;;;;;;;5063904;28;20570;-58
2023/04/22 05:38:06;;;;;;;18.50;11.10;;;;;;;;;;5059565;28;20036;-58
2023/04/22 05:40:31;;;;;;;21.10;10.33;;;;;;;;;;5054681;28;20033;-57
2023/04/22 05:42:57;;;;;;;19.33;11.13;;;;;;;;;;5067918;28;20492;-57
2023/04/22 05:45:22;;;;;;;18.10;10.97;;;;;;;;;;5060416;28;20117;-57
2023/04/22 05:47:47;;;;;;;19.97;11.47;;;;;;;;;;5066465;28;20044;-57
2023/04/22 05:50:13;;;;;;;18.53;11.60;;;;;;;;;;5056064;28;20361;-57
2023/04/22 05:52:38;;;;;;;18.47;10.93;;;;;;;;;;5062108;28;20047;-58
2023/04/22 05:55:04;;;;;;;17.60;11.40;;;;;;;;;;5055486;28;20016;-58
2023/04/22 05:57:30;;;;;;;19.27;11.50;;;;;;;;;;5068209;28;20029;-58
2023/04/22 05:59:55;;;;;;;23.27;10.33;;;;;;;;;;5058050;28;20032;-58
2023/04/22 06:02:21;;;;;;;16.70;10.70;;;;;;;;;;5048481;28;20026;-57
2023/04/22 06:04:46;;;;;;;17.17;9.37;;;;;;;;;;5052631;28;20119;-57
2023/04/22 06:07:11;;;;;;;18.97;10.03;;;;;;;;;;5049149;28;20500;-57
2023/04/22 06:09:36;;;;;;;16.77;9.73;;;;;;;;;;5053096;28;20032;-57
2023/04/22 06:12:02;;;;;;;14.13;8.77;;;;;;;;;;5056733;28;20048;-58
2023/04/22 06:14:27;;;;;;;16.23;8.90;;;;;;;;;;5048949;28;20468;-57
2023/04/22 06:16:52;;;;;;;12.02;8.35;;;;;;;;;;5058154;28;20021;-57
2023/04/22 06:19:18;;;;;;;13.65;6.47;;;;;;;;;;5069858;28;20070;-57
2023/04/22 06:21:43;;;;;;;12.45;7.60;;;;;;;;;;5057606;28;20033;-58
2023/04/22 06:24:09;;;;;;;14.13;7.60;;;;;;;;;;5060916;28;20024;-58
2023/04/22 06:26:37;;;;;;;13.02;6.90;;;;;;;;;;5052116;28;20405;-57
2023/04/22 06:29:04;;;;;;;11.80;7.25;;;;;;;;;;5058546;28;20048;-58
2023/04/22 06:31:30;;;;;;;16.35;7.35;;;;;;;;;;5057453;28;20016;-57
2023/04/22 06:33:55;;;;;;;12.90;6.80;;;;;;;;;;5051236;28;20035;-58
2023/04/22 06:36:20;;;;;;;11.90;7.22;;;;;;;;;;5052848;28;20111;-58
2023/04/22 06:38:46;;;;;;;11.40;7.30;;;;;;;;;;5053013;28;20245;-58
2023/04/22 06:41:12;;;;;;;22.48;7.43;;;;;;;;;;5053254;28;20027;-58
2023/04/22 06:43:38;;;;;;;15.35;8.13;;;;;;;;;;5065500;28;20487;-58
2023/04/22 06:46:03;;;;;;;13.93;7.55;;;;;;;;;;5055923;28;20033;-57
2023/04/22 06:48:28;;;;;;;13.35;7.60;;;;;;;;;;5049560;28;20025;-57
2023/04/22 06:50:54;;;;;;;14.00;7.47;;;;;;;;;;5047733;28;20016;-58
2023/04/22 06:53:19;;;;;;;12.45;7.60;;;;;;;;;;5050245;28;20123;-58
2023/04/22 06:55:45;;;;;;;14.98;8.27;;;;;;;;;;5048529;28;20530;-58
2023/04/22 06:58:10;;;;;;;12.45;6.68;;;;;;;;;;5060986;28;20021;-58
2023/04/22 07:00:35;;;;;;;14.82;7.88;;;;;;;;;;5051563;28;20059;-57
2023/04/22 07:03:01;;;;;;;13.27;7.75;;;;;;;;;;5049526;28;20028;-58
2023/04/22 07:05:26;;;;;;;16.10;8.50;;;;;;;;;;5047443;28;20092;-57
2023/04/22 07:07:51;;;;;;;16.73;9.07;;;;;;;;;;5046429;28;20531;-58
2023/04/22 07:10:16;;;;;;;13.63;8.13;;;;;;;;;;5046429;28;20094;-58
2023/04/22 07:12:42;;;;;;;12.25;7.75;;;;;;;;;;5052874;28;20154;-58
2023/04/22 07:15:07;;;;;;;16.98;7.50;;;;;;;;;;5050112;28;20461;-58
2023/04/22 07:17:33;;;;;;;12.18;7.47;;;;;;;;;;5052849;28;20031;-57
2023/04/22 07:19:58;;;;;;;11.70;7.20;;;;;;;;;;5049575;28;20437;-58
2023/04/22 07:22:23;;;;;;;11.43;7.03;;;;;;;;;;5051063;28;20029;-58
2023/04/22 07:24:49;;;;;;;10.98;6.13;;;;;;;;;;5049979;28;20032;-57
2023/04/22 07:27:14;;;;;;;10.30;6.38;;;;;;;;;;5051634;28;20025;-58
2023/04/22 07:29:40;;;;;;;12.90;6.47;;;;;;;;;;5055248;28;20020;-58
2023/04/22 07:32:05;;;;;;;14.05;6.65;;;;;;;;;;5054561;28;20017;-58
2023/04/22 07:34:30;;;;;;;10.23;6.18;;;;;;;;;;5066368;28;20096;-58
2023/04/22 07:36:56;;;;;;;12.68;6.20;;;;;;;;;;5057910;28;20116;-58
2023/04/22 07:39:21;;;;;;;12.10;6.05;;;;;;;;;;5060085;28;20030;-58
2023/04/22 07:41:46;;;;;;;9.50;5.55;;;;;;;;;;5052948;28;20048;-58
2023/04/22 07:44:15;;;;;;;10.93;5.65;;;;;;;;;;5050621;28;20075;-58
2023/04/22 07:46:41;;;;;;;11.38;5.50;;;;;;;;;;5040775;28;20086;-57
2023/04/22 07:49:06;;;;;;;12.63;5.97;;;;;;;;;;5069177;28;20017;-58
2023/04/22 07:51:31;;;;;;;7.57;4.70;;;;;;;;;;5066920;28;20082;-58
2023/04/22 07:53:56;;;;;;;8.38;4.90;;;;;;;;;;5049172;28;20062;-57
2023/04/22 07:56:22;;;;;;;7.88;4.82;;;;;;;;;;5047292;28;20021;-58
2023/04/22 07:58:47;;;;;;;8.38;4.55;;;;;;;;;;5056107;28;20358;-58
2023/04/22 08:01:12;;;;;;;10.68;5.13;;;;;;;;;;5053340;28;20025;-58
2023/04/22 08:03:37;;;;;;;10.35;5.13;;;;;;;;;;5046091;28;20113;-58
2023/04/22 08:06:03;;;;;;;8.23;4.22;;;;;;;;;;5058126;28;20515;-58
2023/04/22 08:08:28;;;;;;;8.73;4.80;;;;;;;;;;5049982;28;20025;-58
2023/04/22 08:10:53;;;;;;;7.75;4.35;;;;;;;;;;5055951;28;20013;-58
2023/04/22 08:13:19;;;;;;;16.17;5.15;;;;;;;;;;5059575;28;20017;-58
2023/04/22 08:15:44;;;;;;;6.68;3.55;;;;;;;;;;5050890;28;20035;-57
2023/04/22 08:18:09;;;;;;;8.15;4.22;;;;;;;;;;5057594;28;20385;-58
2023/04/22 08:20:35;;;;;;;7.63;4.90;;;;;;;;;;5053524;28;20025;-58
2023/04/22 08:23:00;;;;;;;10.20;5.13;;;;;;;;;;5046040;28;22148;-58
2023/04/22 08:25:26;;;;;;;7.57;4.10;;;;;;;;;;5048785;28;20437;-58
2023/04/22 08:27:51;;;;;;;6.88;4.05;;;;;;;;;;5051327;28;20420;-58
2023/04/22 08:30:16;;;;;;;8.70;4.22;;;;;;;;;;5057939;28;20473;-58
2023/04/22 08:32:42;;;;;;;9.65;5.03;;;;;;;;;;5052638;28;20021;-58
2023/04/22 08:35:07;;;;;;;10.65;4.45;;;;;;;;;;5058921;28;20017;-58
2023/04/22 08:37:33;;;;;;;6.65;4.32;;;;;;;;;;5060312;28;20368;-57
2023/04/22 08:39:58;;;;;;;8.85;4.70;;;;;;;;;;5061113;28;20461;-57
2023/04/22 08:42:24;;;;;;;7.75;4.38;;;;;;;;;;5057822;28;20125;-58
2023/04/22 08:44:49;;;;;;;17.05;5.38;;;;;;;;;;5057088;28;20176;-57
2023/04/22 08:47:15;;;;;;;6.57;4.10;;;;;;;;;;5052978;28;20028;-57
2023/04/22 08:49:41;;;;;;;9.88;4.95;;;;;;;;;;5053221;28;20025;-57
2023/04/22 08:52:08;;;;;;;10.80;4.68;;;;;;;;;;5053720;28;20021;-57
2023/04/22 08:54:36;;;;;;;10.90;4.50;;;;;;;;;;5054496;28;20062;-57
2023/04/22 08:57:01;;;;;;;10.25;4.25;;;;;;;;;;5056021;28;20259;-58
2023/04/22 08:59:27;;;;;;;8.30;4.30;;;;;;;;;;5054176;28;20025;-57
2023/04/22 09:01:54;;;;;;;5.97;3.45;;;;;;;;;;5059830;28;20017;-57
2023/04/22 09:04:19;;;;;;;5.53;3.85;;;;;;;;;;5053892;28;20040;-57
2023/04/22 09:06:45;;;;;;;8.30;3.85;;;;;;;;;;5066332;28;20086;-57
2023/04/22 09:09:10;;;;;;;6.13;3.13;;;;;;;;;;5053904;28;20386;-57
2023/04/22 09:11:36;;;;;;;5.82;3.60;;;;;;;;;;5063034;28;20032;-58
2023/04/22 09:14:05;;;;;;;8.15;3.95;;;;;;;;;;5064678;28;20408;-58
2023/04/22 09:16:33;;;;;;;7.80;4.13;;;;;;;;;;5054364;28;20404;-57
2023/04/22 09:18:58;;;;;;;7.50;4.05;;;;;;;;;;5054460;28;20493;-57
2023/04/22 09:21:24;;;;;;;5.32;2.60;;;;;;;;;;5054440;28;20020;-57
2023/04/22 09:23:51;;;;;;;5.85;3.72;;;;;;;;;;5055315;28;20100;-58
2023/04/22 09:26:20;;;;;;;9.52;4.10;;;;;;;;;;5053651;28;20432;-57
2023/04/22 09:28:53;;;;;;;7.03;3.50;;;;;;;;;;5035365;28;20524;-58
2023/04/22 09:31:19;;;;;;;5.82;2.72;;;;;;;;;;5053827;28;20075;-58
2023/04/22 09:33:52;;;;;;;6.78;3.50;;;;;;;;;;5071223;28;20024;-58
2023/04/22 09:36:22;;;;;;;7.43;3.70;;;;;;;;;;5051192;28;20024;-57
2023/04/22 09:38:51;;;;;;;8.50;3.97;;;;;;;;;;5053429;28;20028;-58
2023/04/22 09:41:16;;;;;;;5.38;3.22;;;;;;;;;;5056488;28;20024;-58
2023/04/22 09:43:41;;;;;;;10.65;3.50;;;;;;;;;;5060070;28;20384;-58
2023/04/22 09:46:08;;;;;;;8.90;3.20;;;;;;;;;;5046827;28;20461;-57
2023/04/22 09:48:40;;;;;;;7.25;2.50;;;;;;;;;;5049939;28;20033;-58
2023/04/22 09:51:13;;;;;;;5.78;2.58;;;;;;;;;;5054405;28;20017;-58
2023/04/22 09:53:38;;;;;;;3.88;2.42;;;;;;;;;;5055841;28;20024;-58
2023/04/22 09:56:04;;;;;;;4.40;2.42;;;;;;;;;;5054775;28;20032;-58
2023/04/22 09:58:29;;;;;;;3.83;2.00;;;;;;;;;;5052791;28;20021;-58
2023/04/22 10:00:55;;;;;;;8.90;2.50;;;;;;;;;;5053183;28;20019;-58
2023/04/22 10:03:20;;;;;;;5.80;2.50;;;;;;;;;;5052386;28;20017;-58
2023/04/22 10:05:46;;;;;;;4.70;2.80;;;;;;;;;;5048967;28;20075;-58
2023/04/22 10:08:12;;;;;;;5.65;2.80;;;;;;;;;;5053245;28;20025;-58
2023/04/22 10:10:38;;;;;;;4.88;2.50;;;;;;;;;;5055279;28;20025;-57
2023/04/22 10:13:03;;;;;;;5.32;2.53;;;;;;;;;;5054512;28;20024;-58
2023/04/22 10:15:33;;;;;;;5.80;2.60;;;;;;;;;;5052981;28;20036;-57
2023/04/22 10:17:59;;;;;;;4.80;2.20;;;;;;;;;;5052507;28;20032;-57
2023/04/22 10:20:26;;;;;;;3.42;2.10;;;;;;;;;;5051645;28;20126;-58
2023/04/22 10:22:51;;;;;;;4.65;2.00;;;;;;;;;;5052609;28;20413;-62
2023/04/22 10:25:24;;;;;;;4.00;2.20;;;;;;;;;;5055257;28;20032;-62
2023/04/22 10:28:02;;;;;;;4.75;1.92;;;;;;;;;;5054231;28;20017;-62
2023/04/22 10:30:31;;;;;;;4.32;1.90;;;;;;;;;;5051607;28;20021;-62
2023/04/22 10:33:16;;;;;;;7.13;2.40;;;;;;;;;;5050860;28;20029;-62
2023/04/22 10:36:01;;;;;;;5.10;2.05;;;;;;;;;;5051778;28;20028;-62
2023/04/22 10:38:27;;;;;;;6.13;2.20;;;;;;;;;;5053961;28;20025;-63
2023/04/22 10:40:58;;;;;;;6.65;2.30;;;;;;;;;;5052828;28;20036;-63
2023/04/22 10:43:39;;;;;;;2.67;1.42;;;;;;;;;;5062186;28;20013;-63
2023/04/22 10:46:04;;;;;;;4.68;2.05;;;;;;;;;;5065694;28;20407;-62
2023/04/22 10:48:48;;;;;;;5.50;2.20;;;;;;;;;;5050860;28;20036;-62
2023/04/22 10:51:32;;;;;;;4.60;2.03;;;;;;;;;;5058572;28;20361;-62
2023/04/22 10:54:00;;;;;;;5.00;2.20;;;;;;;;;;5047706;28;20464;-62
2023/04/22 10:56:26;;;;;;;4.50;2.40;;;;;;;;;;5072520;28;20024;-63
2023/04/22 10:58:51;;;;;;;3.78;2.30;;;;;;;;;;5072766;28;20032;-63
2023/04/22 11:01:16;;;;;;;6.75;2.88;;;;;;;;;;5066008;28;20384;-63
2023/04/22 11:03:42;;;;;;;4.15;2.40;;;;;;;;;;5059477;28;20543;-63
2023/04/22 11:06:17;;;;;;;6.45;2.70;;;;;;;;;;5066734;28;20078;-63
2023/04/22 11:08:48;;;;;;;4.57;2.60;;;;;;;;;;5063217;28;20048;-62
2023/04/22 11:11:15;;;;;;;4.80;2.45;;;;;;;;;;5064566;28;20079;-62
2023/04/22 11:13:42;;;;;;;7.05;2.60;;;;;;;;;;5053159;28;20053;-63
2023/04/22 11:16:08;;;;;;;5.65;2.38;;;;;;;;;;5048699;28;20020;-63
2023/04/22 11:18:34;;;;;;;5.13;2.70;;;;;;;;;;5049450;28;20441;-63
2023/04/22 11:21:05;;;;;;;7.05;2.72;;;;;;;;;;5052829;28;20021;-63
2023/04/22 11:23:30;;;;;;;4.45;2.42;;;;;;;;;;5052911;28;20021;-63
2023/04/22 11:25:59;;;;;;;7.47;3.33;;;;;;;;;;5052237;28;20079;-63
2023/04/22 11:28:25;;;;;;;7.13;2.72;;;;;;;;;;5053189;28;20116;-63
2023/04/22 11:30:51;;;;;;;5.32;2.15;;;;;;;;;;5070124;28;20044;-63
2023/04/22 11:33:16;;;;;;;4.20;2.28;;;;;;;;;;5072904;28;20074;-64
2023/04/22 11:35:42;;;;;;;5.53;2.25;;;;;;;;;;5067409;28;20055;-63
2023/04/22 11:38:08;;;;;;;4.43;2.40;;;;;;;;;;5072169;28;20021;-63
2023/04/22 11:40:44;;;;;;;4.57;2.10;;;;;;;;;;5066533;28;20162;-63
2023/04/22 11:43:10;;;;;;;3.90;2.20;;;;;;;;;;5034091;28;20033;-63
2023/04/22 11:45:36;;;;;;;5.95;2.22;;;;;;;;;;5051811;28;20040;-63
2023/04/22 11:48:02;;;;;;;5.22;2.70;;;;;;;;;;5052816;28;20027;-63
2023/04/22 11:50:29;;;;;;;5.28;2.38;;;;;;;;;;5053113;28;20469;-62
2023/04/22 11:52:55;;;;;;;3.97;2.20;;;;;;;;;;5073686;28;20468;-63
2023/04/22 11:55:29;;;;;;;4.82;2.42;;;;;;;;;;5070700;28;20490;-63
2023/04/22 11:57:59;;;;;;;5.60;2.38;;;;;;;;;;5075848;28;20028;-64
2023/04/22 12:00:28;;;;;;;4.60;2.00;;;;;;;;;;5062713;28;20350;-63
2023/04/22 12:02:55;;;;;;;4.88;2.10;;;;;;;;;;5065684;28;20091;-63
2023/04/22 12:05:20;;;;;;;3.83;1.95;;;;;;;;;;5067504;28;20102;-63
2023/04/22 12:07:45;;;;;;;6.15;2.55;;;;;;;;;;5072977;28;20025;-63
2023/04/22 12:10:11;;;;;;;4.13;2.63;;;;;;;;;;5056492;28;20386;-63
2023/04/22 12:12:38;;;;;;;12.18;3.20;;;;;;;;;;5054012;28;20070;-64
2023/04/22 12:15:10;;;;;;;5.35;2.50;;;;;;;;;;5051139;28;20099;-64
2023/04/22 12:17:35;;;;;;;5.57;2.70;;;;;;;;;;5056365;28;20471;-64
2023/04/22 12:20:01;;;;;;;5.38;2.75;;;;;;;;;;5062479;28;20120;-64
2023/04/22 12:22:27;;;;;;;4.68;2.38;;;;;;;;;;5055591;28;20028;-64
2023/04/22 12:24:53;;;;;;;6.05;2.50;;;;;;;;;;5053227;28;20477;-64
2023/04/22 12:27:18;;;;;;;6.25;2.72;;;;;;;;;;5058732;28;20049;-63
2023/04/22 12:29:54;;;;;;;5.72;2.60;;;;;;;;;;5053728;28;20475;-65
2023/04/22 12:32:19;;;;;;;6.55;2.72;;;;;;;;;;5070822;28;20021;-65
2023/04/22 12:34:45;;;;;;;4.90;2.63;;;;;;;;;;5055963;28;20143;-63
2023/04/22 12:37:10;;;;;;;4.57;2.53;;;;;;;;;;5056724;28;20492;-66
2023/04/22 12:39:36;;;;;;;5.05;2.50;;;;;;;;;;5059075;28;20126;-63
2023/04/22 12:42:02;;;;;;;6.22;2.50;;;;;;;;;;5054032;28;20063;-63
2023/04/22 12:44:27;;;;;;;6.35;2.38;;;;;;;;;;5059092;28;20020;-63
2023/04/22 12:46:53;;;;;;;4.10;2.13;;;;;;;;;;5058429;28;20025;-64
2023/04/22 12:49:18;;;;;;;3.85;2.40;;;;;;;;;;5061720;28;20016;-63
2023/04/22 12:51:44;;;;;;;4.38;2.67;;;;;;;;;;5057640;28;20028;-63
2023/04/22 12:54:10;;;;;;;4.45;2.60;;;;;;;;;;5067712;28;20431;-63
2023/04/22 12:56:35;;;;;;;5.45;2.83;;;;;;;;;;5068503;28;20044;-63
2023/04/22 12:59:02;;;;;;;4.47;2.53;;;;;;;;;;5063520;28;20055;-63
2023/04/22 13:01:28;;;;;;;6.20;2.33;;;;;;;;;;5060673;28;20016;-64
2023/04/22 13:03:53;;;;;;;3.00;1.50;;;;;;;;;;5058310;28;20052;-62
2023/04/22 13:06:18;;;;;;;4.25;2.28;;;;;;;;;;5056598;28;20053;-63
2023/04/22 13:08:44;;;;;;;3.70;2.25;;;;;;;;;;5066260;28;20025;-62
2023/04/22 13:11:09;;;;;;;6.53;2.55;;;;;;;;;;5069240;28;20013;-63
2023/04/22 13:13:34;;;;;;;4.55;2.58;;;;;;;;;;5054216;28;20032;-64
2023/04/22 13:16:00;;;;;;;5.28;2.72;;;;;;;;;;5055208;28;20013;-64
2023/04/22 13:18:26;;;;;;;6.20;2.40;;;;;;;;;;5065041;28;20468;-64
2023/04/22 13:20:55;;;;;;;7.03;2.13;;;;;;;;;;5055284;28;20096;-65
2023/04/22 13:23:22;;;;;;;4.82;2.20;;;;;;;;;;5055483;28;20013;-64
2023/04/22 13:25:47;;;;;;;5.18;2.10;;;;;;;;;;5053903;28;20158;-63
2023/04/22 13:28:12;;;;;;;4.72;2.00;;;;;;;;;;5055325;28;20505;-64
2023/04/22 13:30:38;;;;;;;4.28;1.85;;;;;;;;;;5065169;28;20461;-64
2023/04/22 13:33:03;;;;;;;6.45;2.13;;;;;;;;;;5072405;28;20032;-64
2023/04/22 13:35:29;;;;;;;3.47;1.67;;;;;;;;;;5058705;28;20031;-64
2023/04/22 13:37:54;;;;;;;3.80;1.60;;;;;;;;;;5064273;28;20074;-65
2023/04/22 13:40:20;;;;;;;4.22;1.63;;;;;;;;;;5075086;28;20106;-65
2023/04/22 13:42:45;;;;;;;4.18;1.95;;;;;;;;;;5063790;28;20414;-64
2023/04/22 13:45:11;;;;;;;5.45;1.90;;;;;;;;;;5070977;28;20117;-64
2023/04/22 13:47:36;;;;;;;3.35;1.80;;;;;;;;;;5058892;28;20031;-64
2023/04/22 13:50:02;;;;;;;5.72;2.10;;;;;;;;;;5074683;28;20051;-64
2023/04/22 13:52:27;;;;;;;5.05;2.00;;;;;;;;;;5073608;28;20031;-63
2023/04/22 13:54:53;;;;;;;5.45;2.28;;;;;;;;;;5073912;28;20537;-63
2023/04/22 13:57:19;;;;;;;4.18;1.85;;;;;;;;;;5073597;28;20028;-63
2023/04/22 13:59:44;;;;;;;4.22;2.08;;;;;;;;;;5069065;28;20485;-63
2023/04/22 14:02:10;;;;;;;4.68;1.60;;;;;;;;;;5058360;28;20025;-64
2023/04/22 14:04:35;;;;;;;5.43;2.00;;;;;;;;;;5073303;28;20052;-64
2023/04/22 14:07:00;;;;;;;7.18;1.80;;;;;;;;;;5070219;28;20040;-64
2023/04/22 14:09:26;;;;;;;3.65;1.88;;;;;;;;;;5072123;28;20035;-65
2023/04/22 14:11:51;;;;;;;4.55;2.00;;;;;;;;;;5063371;28;20112;-66
2023/04/22 14:14:16;;;;;;;7.97;1.70;;;;;;;;;;5065891;28;20482;-67
2023/04/22 14:16:42;;;;;;;12.80;2.13;;;;;;;;;;5067924;28;20393;-66
2023/04/22 14:19:09;;;;;;;3.58;1.75;;;;;;;;;;5068582;28;20020;-67
2023/04/22 14:21:34;;;;;;;4.05;1.55;;;;;;;;;;5073178;28;20021;-66
2023/04/22 14:23:59;;;;;;;3.53;1.40;;;;;;;;;;5068805;28;20021;-66
2023/04/22 14:26:25;;;;;;;5.80;1.73;;;;;;;;;;5057256;28;20025;-66
2023/04/22 14:28:50;;;;;;;3.30;1.60;;;;;;;;;;5060493;28;20021;-66